createdAt,value
2018-04-06T00:01:20.234Z,33.93
2018-04-06T00:03:45.966Z,29.47
2018-04-06T00:06:11.720Z,28.07
2018-04-06T00:08:37.674Z,35.83
2018-04-06T00:11:03.417Z,33.07
2018-04-06T00:13:29.129Z,27.73
2018-04-06T00:15:54.893Z,23.07
2018-04-06T00:18:20.622Z,27.83
2018-04-06T00:20:46.350Z,31.40
2018-04-06T00:23:12.100Z,35.33
2018-04-06T00:25:37.824Z,24.33
2018-04-06T00:28:04.886Z,33.10
2018-04-06T00:30:30.628Z,31.40
2018-04-06T00:32:56.559Z,34.03
2018-04-06T00:35:22.341Z,27.07
2018-04-06T00:37:48.085Z,34.13
2018-04-06T00:40:13.792Z,31.33
2018-04-06T00:42:39.518Z,27.57
2018-04-06T00:45:05.269Z,26.77
2018-04-06T00:47:31.077Z,32.93
2018-04-06T00:49:57.132Z,29.37
2018-04-06T00:52:22.864Z,31.00
2018-04-06T00:54:48.597Z,27.47
2018-04-06T00:57:14.344Z,29.83
2018-04-06T00:59:40.107Z,33.40
2018-04-06T01:02:05.853Z,26.37
2018-04-06T01:04:31.576Z,25.57
2018-04-06T01:06:57.302Z,26.97
2018-04-06T01:09:23.027Z,26.23
2018-04-06T01:11:48.778Z,29.23
2018-04-06T01:14:14.519Z,24.37
2018-04-06T01:16:40.259Z,30.43
2018-04-06T01:19:06.036Z,26.00
2018-04-06T01:21:31.779Z,25.73
2018-04-06T01:23:57.519Z,27.30
2018-04-06T01:26:23.279Z,26.67
2018-04-06T01:28:49.004Z,28.57
2018-04-06T01:31:14.726Z,34.60
2018-04-06T01:33:40.457Z,35.40
2018-04-06T01:36:06.187Z,28.60
2018-04-06T01:38:31.925Z,28.93
2018-04-06T01:40:57.646Z,24.67
2018-04-06T01:43:23.369Z,29.20
2018-04-06T01:45:49.098Z,26.53
2018-04-06T01:48:14.843Z,29.63
2018-04-06T01:50:40.582Z,31.40
2018-04-06T01:53:06.318Z,26.17
2018-04-06T01:55:32.051Z,27.13
2018-04-06T01:57:57.799Z,25.30
2018-04-06T02:00:23.553Z,22.40
2018-04-06T02:02:49.311Z,28.73
2018-04-06T02:05:15.058Z,23.80
2018-04-06T02:07:40.817Z,27.43
2018-04-06T02:10:06.574Z,28.23
2018-04-06T02:12:32.436Z,31.57
2018-04-06T02:14:58.174Z,33.43
2018-04-06T02:17:23.917Z,33.73
2018-04-06T02:19:49.652Z,38.50
2018-04-06T02:22:15.389Z,26.23
2018-04-06T02:24:41.184Z,20.63
2018-04-06T02:27:06.871Z,32.23
2018-04-06T02:29:32.608Z,22.60
2018-04-06T02:31:58.342Z,30.53
2018-04-06T02:34:24.087Z,27.87
2018-04-06T02:36:49.826Z,22.90
2018-04-06T02:39:15.570Z,26.43
2018-04-06T02:41:41.371Z,32.53
2018-04-06T02:44:07.098Z,26.17
2018-04-06T02:46:32.837Z,30.30
2018-04-06T02:48:58.581Z,31.20
2018-04-06T02:51:24.340Z,32.23
2018-04-06T02:53:50.093Z,26.67
2018-04-06T02:56:15.867Z,28.83
2018-04-06T02:58:41.618Z,30.80
2018-04-06T03:01:07.352Z,31.70
2018-04-06T03:03:33.085Z,31.93
2018-04-06T03:05:58.813Z,29.70
2018-04-06T03:08:24.554Z,28.30
2018-04-06T03:10:50.285Z,28.07
2018-04-06T03:13:16.043Z,36.83
2018-04-06T03:15:41.786Z,30.23
2018-04-06T03:18:07.514Z,44.57
2018-04-06T03:20:33.236Z,33.97
2018-04-06T03:22:58.972Z,27.43
2018-04-06T03:25:24.698Z,34.77
2018-04-06T03:27:50.472Z,37.37
2018-04-06T03:30:16.214Z,31.10
2018-04-06T03:32:41.950Z,27.10
2018-04-06T03:35:07.677Z,30.90
2018-04-06T03:37:33.416Z,29.17
2018-04-06T03:39:59.138Z,34.20
2018-04-06T03:42:24.890Z,27.40
2018-04-06T03:44:50.638Z,26.87
2018-04-06T03:47:16.450Z,31.03
2018-04-06T03:49:42.189Z,22.63
2018-04-06T03:52:07.930Z,26.17
2018-04-06T03:54:33.680Z,29.47
2018-04-06T03:56:59.409Z,30.57
2018-04-06T03:59:25.153Z,32.30
2018-04-06T04:01:50.870Z,32.00
2018-04-06T04:04:16.609Z,25.07
2018-04-06T04:06:42.345Z,34.70
2018-04-06T04:09:08.085Z,31.33
2018-04-06T04:11:33.822Z,27.00
2018-04-06T04:13:59.545Z,28.23
2018-04-06T04:16:25.287Z,24.27
2018-04-06T04:18:51.009Z,25.77
2018-04-06T04:21:16.729Z,24.27
2018-04-06T04:23:42.452Z,29.40
2018-04-06T04:26:08.179Z,24.10
2018-04-06T04:28:33.925Z,34.80
2018-04-06T04:30:59.649Z,26.77
2018-04-06T04:33:25.381Z,22.00
2018-04-06T04:35:51.159Z,24.67
2018-04-06T04:38:16.898Z,30.80
2018-04-06T04:40:42.617Z,29.50
2018-04-06T04:43:08.353Z,22.10
2018-04-06T04:45:34.078Z,27.03
2018-04-06T04:47:59.805Z,28.50
2018-04-06T04:50:25.564Z,28.57
2018-04-06T04:52:51.278Z,33.87
2018-04-06T04:55:17.029Z,23.73
2018-04-06T04:57:42.762Z,28.83
2018-04-06T05:00:08.505Z,30.00
2018-04-06T05:02:34.246Z,28.57
2018-04-06T05:04:59.981Z,34.50
2018-04-06T05:07:25.721Z,24.13
2018-04-06T05:09:51.462Z,36.33
2018-04-06T05:12:17.193Z,30.30
2018-04-06T05:14:42.952Z,32.30
2018-04-06T05:17:08.697Z,29.47
2018-04-06T05:19:34.459Z,37.30
2018-04-06T05:22:00.194Z,28.77
2018-04-06T05:24:25.988Z,28.40
2018-04-06T05:26:51.694Z,32.67
2018-04-06T05:29:17.451Z,29.57
2018-04-06T05:31:43.204Z,30.33
2018-04-06T05:34:08.966Z,30.27
2018-04-06T05:36:34.705Z,33.03
2018-04-06T05:39:00.449Z,28.67
2018-04-06T05:41:26.168Z,26.30
2018-04-06T05:43:51.908Z,36.27
2018-04-06T05:46:17.642Z,27.77
2018-04-06T05:48:43.390Z,31.90
2018-04-06T05:51:09.161Z,29.53
2018-04-06T05:53:34.906Z,25.30
2018-04-06T05:56:00.670Z,33.97
2018-04-06T05:58:26.397Z,31.57
2018-04-06T06:00:52.125Z,29.13
2018-04-06T06:03:17.846Z,26.17
2018-04-06T06:05:43.580Z,34.67
2018-04-06T06:08:09.294Z,28.57
2018-04-06T06:10:35.018Z,40.03
2018-04-06T06:13:00.737Z,29.77
2018-04-06T06:15:26.469Z,28.43
2018-04-06T06:17:52.226Z,29.40
2018-04-06T06:20:17.930Z,29.37
2018-04-06T06:22:43.646Z,26.13
2018-04-06T06:25:09.408Z,34.67
2018-04-06T06:27:35.139Z,24.20
2018-04-06T06:30:00.865Z,28.30
2018-04-06T06:32:26.586Z,27.17
2018-04-06T06:34:59.254Z,25.63
2018-04-06T06:37:24.977Z,31.25
2018-04-06T06:39:50.722Z,28.30
2018-04-06T06:42:16.445Z,26.83
2018-04-06T06:44:42.178Z,26.60
2018-04-06T06:47:08.022Z,30.60
2018-04-06T06:49:33.765Z,27.10
2018-04-06T06:51:59.506Z,25.43
2018-04-06T06:54:25.254Z,25.70
2018-04-06T06:56:50.964Z,24.00
2018-04-06T06:59:16.685Z,22.73
2018-04-06T07:01:42.406Z,24.83
2018-04-06T07:04:08.138Z,27.77
2018-04-06T07:06:33.879Z,26.17
2018-04-06T07:08:59.610Z,25.13
2018-04-06T07:11:25.338Z,24.47
2018-04-06T07:13:51.086Z,24.30
2018-04-06T07:16:16.823Z,21.07
2018-04-06T07:18:42.533Z,18.50
2018-04-06T07:21:08.257Z,23.03
2018-04-06T07:23:33.983Z,23.87
2018-04-06T07:25:59.720Z,20.47
2018-04-06T07:28:25.437Z,22.90
2018-04-06T07:30:51.170Z,19.83
2018-04-06T07:33:16.893Z,21.70
2018-04-06T07:35:42.627Z,17.73
2018-04-06T07:38:08.345Z,21.10
2018-04-06T07:40:34.093Z,16.97
2018-04-06T07:42:59.819Z,22.43
2018-04-06T07:45:32.354Z,16.53
2018-04-06T07:47:58.077Z,17.37
2018-04-06T07:50:24.914Z,17.50
2018-04-06T07:52:50.655Z,16.52
2018-04-06T07:55:16.401Z,18.57
2018-04-06T07:57:42.146Z,17.73
2018-04-06T08:00:07.898Z,16.37
2018-04-06T08:02:33.625Z,16.97
2018-04-06T08:04:59.370Z,14.03
2018-04-06T08:07:25.109Z,16.93
2018-04-06T08:09:50.850Z,18.97
2018-04-06T08:12:16.584Z,14.73
2018-04-06T08:14:42.308Z,14.60
2018-04-06T08:17:08.062Z,14.00
2018-04-06T08:19:33.794Z,15.50
2018-04-06T08:21:59.546Z,14.73
2018-04-06T08:24:25.295Z,15.60
2018-04-06T08:26:51.038Z,14.17
2018-04-06T08:29:16.759Z,11.90
2018-04-06T08:31:42.505Z,15.90
2018-04-06T08:34:08.239Z,11.87
2018-04-06T08:36:33.982Z,12.40
2018-04-06T08:38:59.734Z,13.23
2018-04-06T08:41:25.493Z,12.50
2018-04-06T08:43:51.230Z,15.00
2018-04-06T08:46:16.974Z,13.03
2018-04-06T08:48:42.715Z,10.97
2018-04-06T08:51:08.450Z,13.50
2018-04-06T08:53:34.186Z,8.60
2018-04-06T08:55:59.917Z,8.47
2018-04-06T08:58:25.634Z,9.93
2018-04-06T09:00:51.363Z,14.33
2018-04-06T09:03:17.082Z,11.33
2018-04-06T09:05:42.819Z,13.13
2018-04-06T09:08:08.530Z,13.70
2018-04-06T09:10:34.253Z,12.63
2018-04-06T09:12:59.979Z,10.13
2018-04-06T09:15:25.725Z,10.27
2018-04-06T09:17:51.442Z,9.37
2018-04-06T09:20:17.163Z,12.90
2018-04-06T09:22:42.909Z,10.77
2018-04-06T09:25:09.875Z,9.33
2018-04-06T09:27:35.602Z,9.50
2018-04-06T09:30:01.329Z,10.10
2018-04-06T09:32:27.058Z,7.87
2018-04-06T09:34:53.144Z,10.63
2018-04-06T09:37:18.903Z,8.47
2018-04-06T09:39:44.633Z,9.27
2018-04-06T09:42:10.375Z,7.03
2018-04-06T09:44:37.722Z,8.43
2018-04-06T09:47:03.453Z,6.83
2018-04-06T09:49:29.575Z,4.70
2018-04-06T09:51:55.681Z,5.07
2018-04-06T09:54:21.965Z,9.73
2018-04-06T09:56:47.741Z,7.10
2018-04-06T09:59:13.923Z,8.23
2018-04-06T10:01:40.159Z,10.03
2018-04-06T10:04:05.929Z,8.97
2018-04-06T10:06:32.879Z,5.90
2018-04-06T10:08:58.673Z,6.80
2018-04-06T10:11:24.425Z,7.77
2018-04-06T10:13:50.538Z,4.97
2018-04-06T10:16:16.305Z,11.07
2018-04-06T10:18:41.997Z,9.97
2018-04-06T10:21:08.150Z,8.67
2018-04-06T10:23:34.188Z,7.43
2018-04-06T10:25:59.954Z,7.70
2018-04-06T10:28:25.699Z,7.77
2018-04-06T10:30:51.424Z,4.53
2018-04-06T10:33:17.185Z,7.73
2018-04-06T10:35:42.943Z,7.37
2018-04-06T10:38:08.670Z,8.27
2018-04-06T10:40:34.383Z,4.53
2018-04-06T10:43:00.173Z,5.23
2018-04-06T10:45:25.988Z,4.60
2018-04-06T10:47:51.740Z,5.70
2018-04-06T10:50:17.491Z,7.73
2018-04-06T10:52:43.275Z,6.93
2018-04-06T10:55:09.093Z,10.57
2018-04-06T10:57:34.837Z,7.70
2018-04-06T11:00:00.571Z,3.80
2018-04-06T11:02:26.314Z,3.80
2018-04-06T11:04:52.046Z,5.87
2018-04-06T11:07:17.791Z,4.23
2018-04-06T11:09:43.540Z,6.27
2018-04-06T11:12:09.287Z,5.50
2018-04-06T11:14:35.035Z,6.33
2018-04-06T11:17:00.777Z,4.97
2018-04-06T11:19:26.530Z,3.20
2018-04-06T11:21:52.273Z,5.57
2018-04-06T11:24:18.042Z,6.93
2018-04-06T11:26:43.811Z,6.27
2018-04-06T11:29:09.559Z,5.63
2018-04-06T11:31:35.314Z,5.63
2018-04-06T11:34:01.046Z,6.90
2018-04-06T11:36:26.778Z,4.90
2018-04-06T11:38:52.528Z,6.33
2018-04-06T11:41:18.257Z,6.40
2018-04-06T11:43:44.002Z,6.43
2018-04-06T11:46:09.756Z,5.27
2018-04-06T11:48:35.501Z,6.33
2018-04-06T11:51:01.242Z,6.53
2018-04-06T11:53:26.994Z,4.80
2018-04-06T11:55:52.728Z,5.83
2018-04-06T11:58:18.470Z,5.67
2018-04-06T12:00:44.210Z,6.27
2018-04-06T12:03:09.950Z,6.43
2018-04-06T12:05:35.686Z,6.33
2018-04-06T12:08:01.423Z,3.50
2018-04-06T12:10:27.158Z,5.73
2018-04-06T12:12:52.906Z,6.27
2018-04-06T12:15:18.653Z,5.23
2018-04-06T12:17:44.408Z,5.93
2018-04-06T12:20:10.146Z,5.00
2018-04-06T12:22:35.886Z,5.33
2018-04-06T12:25:01.618Z,3.53
2018-04-06T12:27:27.358Z,4.73
2018-04-06T12:29:53.088Z,6.57
2018-04-06T12:32:18.839Z,4.83
2018-04-06T12:34:45.097Z,5.77
2018-04-06T12:37:10.862Z,4.20
2018-04-06T12:39:36.586Z,6.17
2018-04-06T12:42:02.323Z,10.53
2018-04-06T12:44:28.062Z,3.57
2018-04-06T12:46:53.789Z,5.90
2018-04-06T12:49:19.527Z,4.27
2018-04-06T12:51:45.262Z,5.57
2018-04-06T12:54:11.005Z,7.00
2018-04-06T12:56:36.727Z,5.20
2018-04-06T12:59:02.474Z,6.10
2018-04-06T13:01:28.209Z,5.60
2018-04-06T13:03:53.950Z,4.53
2018-04-06T13:06:19.686Z,5.73
2018-04-06T13:08:45.410Z,6.40
2018-04-06T13:11:11.138Z,6.20
2018-04-06T13:13:36.868Z,3.63
2018-04-06T13:16:02.593Z,4.13
2018-04-06T13:18:28.325Z,4.27
2018-04-06T13:20:54.063Z,3.67
2018-04-06T13:23:19.821Z,5.13
2018-04-06T13:25:45.518Z,3.87
2018-04-06T13:28:11.257Z,3.73
2018-04-06T13:30:36.998Z,4.20
2018-04-06T13:33:02.725Z,5.07
2018-04-06T13:35:28.458Z,4.67
2018-04-06T13:37:54.202Z,4.13
2018-04-06T13:40:19.921Z,3.33
2018-04-06T13:42:45.658Z,3.67
2018-04-06T13:45:11.382Z,3.33
2018-04-06T13:47:37.102Z,5.40
2018-04-06T13:50:02.846Z,3.00
2018-04-06T13:52:28.575Z,3.07
2018-04-06T13:54:54.374Z,3.83
2018-04-06T13:57:20.074Z,3.47
2018-04-06T13:59:45.810Z,2.53
2018-04-06T14:02:11.538Z,4.53
2018-04-06T14:04:37.281Z,3.30
2018-04-06T14:07:03.010Z,4.43
2018-04-06T14:09:28.749Z,5.63
2018-04-06T14:11:54.479Z,7.07
2018-04-06T14:14:20.219Z,5.77
2018-04-06T14:16:45.937Z,4.43
2018-04-06T14:19:11.681Z,5.23
2018-04-06T14:21:37.405Z,4.57
2018-04-06T14:24:03.138Z,5.50
2018-04-06T14:26:28.870Z,5.60
2018-04-06T14:28:54.602Z,3.00
2018-04-06T14:31:20.354Z,3.97
2018-04-06T14:33:46.089Z,5.90
2018-04-06T14:36:11.817Z,6.10
2018-04-06T14:38:37.566Z,4.27
2018-04-06T14:41:03.305Z,3.77
2018-04-06T14:43:29.046Z,6.67
2018-04-06T14:45:54.765Z,5.17
2018-04-06T14:48:20.518Z,4.97
2018-04-06T14:50:46.241Z,3.97
2018-04-06T14:53:11.971Z,4.37
2018-04-06T14:55:37.718Z,3.47
2018-04-06T14:58:03.462Z,4.13
2018-04-06T15:00:29.198Z,3.67
2018-04-06T15:02:54.925Z,4.07
2018-04-06T15:05:20.667Z,3.37
2018-04-06T15:07:46.388Z,3.53
2018-04-06T15:10:12.138Z,4.07
2018-04-06T15:12:37.930Z,3.60
2018-04-06T15:15:03.674Z,2.07
2018-04-06T15:17:29.396Z,4.97
2018-04-06T15:19:55.147Z,2.60
2018-04-06T15:22:20.877Z,3.30
2018-04-06T15:24:46.621Z,4.20
2018-04-06T15:27:12.355Z,4.67
2018-04-06T15:29:38.132Z,2.17
2018-04-06T15:32:03.879Z,4.57
2018-04-06T15:34:29.625Z,4.10
2018-04-06T15:36:55.356Z,3.57
2018-04-06T15:39:21.119Z,2.93
2018-04-06T15:41:46.853Z,2.60
2018-04-06T15:44:12.602Z,2.87
2018-04-06T15:46:38.347Z,6.57
2018-04-06T15:49:04.105Z,5.20
2018-04-06T15:51:29.855Z,4.97
2018-04-06T15:53:55.609Z,5.00
2018-04-06T15:56:21.331Z,3.13
2018-04-06T15:58:48.233Z,4.83
2018-04-06T16:01:14.126Z,4.03
2018-04-06T16:03:39.859Z,4.10
2018-04-06T16:06:05.576Z,3.67
2018-04-06T16:08:31.305Z,6.27
2018-04-06T16:10:57.049Z,5.13
2018-04-06T16:13:22.777Z,6.10
2018-04-06T16:15:48.505Z,6.10
2018-04-06T16:18:14.250Z,5.57
2018-04-06T16:20:39.988Z,5.43
2018-04-06T16:23:05.732Z,5.47
2018-04-06T16:25:31.462Z,5.03
2018-04-06T16:27:57.197Z,6.83
2018-04-06T16:30:22.929Z,3.63
2018-04-06T16:32:48.675Z,5.60
2018-04-06T16:35:14.722Z,5.53
2018-04-06T16:37:40.456Z,6.10
2018-04-06T16:40:06.194Z,4.77
2018-04-06T16:42:31.928Z,6.27
2018-04-06T16:44:57.678Z,5.10
2018-04-06T16:47:23.463Z,4.17
2018-04-06T16:49:49.168Z,6.97
2018-04-06T16:52:14.934Z,4.40
2018-04-06T16:54:40.637Z,6.03
2018-04-06T16:57:06.357Z,4.70
2018-04-06T16:59:32.148Z,3.50
2018-04-06T17:01:57.848Z,5.17
2018-04-06T17:04:23.568Z,3.67
2018-04-06T17:06:49.312Z,4.53
2018-04-06T17:09:15.038Z,5.03
2018-04-06T17:11:40.782Z,4.83
2018-04-06T17:14:06.517Z,6.13
2018-04-06T17:16:32.259Z,5.20
2018-04-06T17:18:57.985Z,6.13
2018-04-06T17:21:23.726Z,4.23
2018-04-06T17:23:49.463Z,7.57
2018-04-06T17:26:15.195Z,6.33
2018-04-06T17:28:40.930Z,10.07
2018-04-06T17:31:06.657Z,9.60
2018-04-06T17:33:32.390Z,10.87
2018-04-06T17:35:58.118Z,8.10
2018-04-06T17:38:23.838Z,5.80
2018-04-06T17:40:49.582Z,5.47
2018-04-06T17:43:15.322Z,4.03
2018-04-06T17:45:41.039Z,5.20
2018-04-06T17:48:06.766Z,5.43
2018-04-06T17:50:32.498Z,4.13
2018-04-06T17:52:58.219Z,7.07
2018-04-06T17:55:24.028Z,6.27
2018-04-06T17:57:49.766Z,4.97
2018-04-06T18:00:15.513Z,5.67
2018-04-06T18:02:41.262Z,6.77
2018-04-06T18:05:07.009Z,3.40
2018-04-06T18:07:32.754Z,5.97
2018-04-06T18:09:58.491Z,6.33
2018-04-06T18:12:24.234Z,14.77
2018-04-06T18:14:50.010Z,11.60
2018-04-06T18:17:15.751Z,9.37
2018-04-06T18:19:41.489Z,6.93
2018-04-06T18:22:07.236Z,11.20
2018-04-06T18:24:32.969Z,9.87
2018-04-06T18:26:58.714Z,8.30
2018-04-06T18:29:24.444Z,9.33
2018-04-06T18:31:50.194Z,9.70
2018-04-06T18:34:15.938Z,11.30
2018-04-06T18:36:41.691Z,9.70
2018-04-06T18:39:07.429Z,11.83
2018-04-06T18:41:33.179Z,12.50
2018-04-06T18:43:58.930Z,9.77
2018-04-06T18:46:24.673Z,9.67
2018-04-06T18:48:50.419Z,11.60
2018-04-06T18:51:16.211Z,7.13
2018-04-06T18:53:41.946Z,8.47
2018-04-06T18:56:07.691Z,7.57
2018-04-06T18:58:33.452Z,7.47
2018-04-06T19:00:59.157Z,10.40
2018-04-06T19:03:24.889Z,6.10
2018-04-06T19:05:50.621Z,5.93
2018-04-06T19:08:16.392Z,8.67
2018-04-06T19:10:42.137Z,7.63
2018-04-06T19:13:07.858Z,10.10
2018-04-06T19:15:33.582Z,5.83
2018-04-06T19:17:59.314Z,7.77
2018-04-06T19:20:25.033Z,7.60
2018-04-06T19:22:50.773Z,9.23
2018-04-06T19:25:16.493Z,7.33
2018-04-06T19:27:42.216Z,7.97
2018-04-06T19:30:08.030Z,9.23
2018-04-06T19:32:33.766Z,6.23
2018-04-06T19:34:59.492Z,5.57
2018-04-06T19:37:25.226Z,8.37
2018-04-06T19:39:50.962Z,8.07
2018-04-06T19:42:16.705Z,7.23
2018-04-06T19:44:42.434Z,6.90
2018-04-06T19:47:08.166Z,9.53
2018-04-06T19:49:33.934Z,8.70
2018-04-06T19:51:59.665Z,7.27
2018-04-06T19:54:25.396Z,6.77
2018-04-06T19:56:51.133Z,7.40
2018-04-06T19:59:16.863Z,7.40
2018-04-06T20:01:42.620Z,7.20
2018-04-06T20:04:08.385Z,5.50
2018-04-06T20:06:34.110Z,7.73
2018-04-06T20:08:59.893Z,6.70
2018-04-06T20:11:25.557Z,8.83
2018-04-06T20:13:51.273Z,6.13
2018-04-06T20:16:17.002Z,7.03
2018-04-06T20:18:42.729Z,6.23
2018-04-06T20:21:08.455Z,5.43
2018-04-06T20:23:34.194Z,6.33
2018-04-06T20:25:59.913Z,5.70
2018-04-06T20:28:25.642Z,5.87
2018-04-06T20:30:51.379Z,6.53
2018-04-06T20:33:17.104Z,7.90
2018-04-06T20:35:42.825Z,7.57
2018-04-06T20:38:08.570Z,7.20
2018-04-06T20:40:34.304Z,6.57
2018-04-06T20:43:00.039Z,4.93
2018-04-06T20:45:25.761Z,8.07
2018-04-06T20:47:51.508Z,6.43
2018-04-06T20:50:17.265Z,6.90
2018-04-06T20:52:42.986Z,5.77
2018-04-06T20:55:08.734Z,7.20
2018-04-06T20:57:34.485Z,6.90
2018-04-06T21:00:00.225Z,7.60
2018-04-06T21:02:25.975Z,6.00
2018-04-06T21:04:51.710Z,6.90
2018-04-06T21:07:17.445Z,8.20
2018-04-06T21:09:43.169Z,7.80
2018-04-06T21:12:08.914Z,5.37
2018-04-06T21:14:34.675Z,8.43
2018-04-06T21:17:00.426Z,6.13
2018-04-06T21:19:26.162Z,6.13
2018-04-06T21:21:51.934Z,5.77
2018-04-06T21:24:17.670Z,6.60
2018-04-06T21:26:43.406Z,6.17
2018-04-06T21:29:09.178Z,7.60
2018-04-06T21:31:34.973Z,5.97
2018-04-06T21:34:00.662Z,4.67
2018-04-06T21:36:26.381Z,3.50
2018-04-06T21:38:52.121Z,6.33
2018-04-06T21:41:17.859Z,4.10
2018-04-06T21:43:43.602Z,4.73
2018-04-06T21:46:09.334Z,3.87
2018-04-06T21:48:35.085Z,4.87
2018-04-06T21:51:00.824Z,5.63
2018-04-06T21:53:26.674Z,4.63
2018-04-06T21:55:52.427Z,4.20
2018-04-06T21:58:18.184Z,5.50
2018-04-06T22:00:43.959Z,4.73
2018-04-06T22:03:09.665Z,5.93
2018-04-06T22:05:35.397Z,4.60
2018-04-06T22:08:01.127Z,5.30
2018-04-06T22:10:26.906Z,4.67
2018-04-06T22:12:52.652Z,5.77
2018-04-06T22:15:18.381Z,3.80
2018-04-06T22:17:44.109Z,4.83
2018-04-06T22:20:09.827Z,4.67
2018-04-06T22:22:35.558Z,3.80
2018-04-06T22:25:01.298Z,4.50
2018-04-06T22:27:27.093Z,3.23
2018-04-06T22:29:52.839Z,3.33
2018-04-06T22:32:18.583Z,6.70
2018-04-06T22:34:44.333Z,4.57
2018-04-06T22:37:10.068Z,3.20
2018-04-06T22:39:35.794Z,3.53
2018-04-06T22:42:01.536Z,3.80
2018-04-06T22:44:27.265Z,4.00
2018-04-06T22:46:52.977Z,3.07
2018-04-06T22:49:19.519Z,4.40
2018-04-06T22:51:45.249Z,5.18
2018-04-06T22:54:10.997Z,5.97
2018-04-06T22:56:36.725Z,4.13
2018-04-06T22:59:02.464Z,5.10
2018-04-06T23:01:28.190Z,4.80
2018-04-06T23:03:53.942Z,3.83
2018-04-06T23:06:19.662Z,7.00
2018-04-06T23:08:45.414Z,8.37
2018-04-06T23:11:11.158Z,3.83
2018-04-06T23:13:36.892Z,5.63
2018-04-06T23:16:02.680Z,3.67
2018-04-06T23:18:28.465Z,5.73
2018-04-06T23:20:54.198Z,4.47
2018-04-06T23:23:19.950Z,8.57
2018-04-06T23:25:45.686Z,4.00
2018-04-06T23:28:11.430Z,3.47
2018-04-06T23:30:37.162Z,3.47
2018-04-06T23:33:02.914Z,4.40
2018-04-06T23:35:28.654Z,2.87
2018-04-06T23:37:54.545Z,5.73
2018-04-06T23:40:20.275Z,4.20
2018-04-06T23:42:46.047Z,6.87
2018-04-06T23:45:11.792Z,7.87
2018-04-06T23:47:37.517Z,11.17
2018-04-06T23:50:03.253Z,7.63
2018-04-06T23:52:29.221Z,6.30
2018-04-06T23:54:54.981Z,5.43
2018-04-06T23:57:20.714Z,6.83
2018-04-06T23:59:46.461Z,4.00
